createdAt,value
2022-10-19T00:01:29.016Z,101935.47
2022-10-19T00:03:59.989Z,101938.16
2022-10-19T00:06:33.233Z,101934.66
2022-10-19T00:09:08.575Z,101932.97
2022-10-19T00:11:41.465Z,101933.97
2022-10-19T00:14:14.175Z,101932.47
2022-10-19T00:16:44.430Z,101942.34
2022-10-19T00:19:17.225Z,101944.38
2022-10-19T00:21:47.423Z,101943.34
2022-10-19T00:24:20.001Z,101946.03
2022-10-19T00:26:49.867Z,101951.06
2022-10-19T00:29:20.412Z,101943.03
2022-10-19T00:31:51.981Z,101949.88
2022-10-19T00:34:23.306Z,101946.38
2022-10-19T00:36:53.160Z,101947.22
2022-10-19T00:39:25.574Z,101939.34
2022-10-19T00:41:55.389Z,101947.38
2022-10-19T00:44:55.517Z,101941.66
2022-10-19T00:47:27.023Z,101940.84
2022-10-19T00:49:57.696Z,101945.19
2022-10-19T00:52:29.150Z,101952.22
2022-10-19T00:55:02.794Z,101943.34
2022-10-19T00:57:34.692Z,101943.16
2022-10-19T01:00:07.939Z,101947.84
2022-10-19T01:02:38.261Z,101950.38
2022-10-19T01:05:11.999Z,101949.03
2022-10-19T01:07:41.870Z,101944.34
2022-10-19T01:10:15.577Z,101945.53
2022-10-19T01:12:59.312Z,101940.34
2022-10-19T01:15:39.206Z,101932.13
2022-10-19T01:18:17.564Z,101934.97
2022-10-19T01:21:11.425Z,101935.81
2022-10-19T01:24:03.911Z,101924.59
2022-10-19T01:27:16.087Z,101930.31
2022-10-19T01:30:10.097Z,101926.13
2022-10-19T01:32:55.933Z,101925.28
2022-10-19T01:35:34.194Z,101918.25
2022-10-19T01:38:25.083Z,101921.59
2022-10-19T01:41:01.400Z,101919.59
2022-10-19T01:43:39.740Z,101917.75
2022-10-19T01:46:16.533Z,101921.25
2022-10-19T01:48:53.625Z,101929.28
2022-10-19T01:51:29.279Z,101923.59
2022-10-19T01:54:06.340Z,101924.44
2022-10-19T01:56:39.451Z,101926.94
2022-10-19T01:59:12.335Z,101927.63
2022-10-19T02:01:49.037Z,101920.59
2022-10-19T02:04:25.684Z,101912.72
2022-10-19T02:06:58.061Z,101921.94
2022-10-19T02:09:28.125Z,101915.56
2022-10-19T02:12:02.273Z,101912.06
2022-10-19T02:14:36.861Z,101908.19
2022-10-19T02:17:12.282Z,101901.84
2022-10-19T02:19:43.013Z,101904.19
2022-10-19T02:22:14.517Z,101903.34
2022-10-19T02:24:44.307Z,101908.69
2022-10-19T02:27:14.298Z,101905.19
2022-10-19T02:29:44.450Z,101919.59
2022-10-19T02:32:17.096Z,101914.22
2022-10-19T02:34:46.993Z,101911.22
2022-10-19T02:37:18.940Z,101920.25
2022-10-19T02:39:50.816Z,101909.72
2022-10-19T02:42:27.693Z,101913.22
2022-10-19T02:45:02.925Z,101906.53
2022-10-19T02:47:40.365Z,101907.72
2022-10-19T02:50:12.200Z,101904.19
2022-10-19T02:52:43.128Z,101911.56
2022-10-19T02:55:13.602Z,101904.69
2022-10-19T02:57:43.567Z,101909.38
2022-10-19T03:00:14.909Z,101902.53
2022-10-19T03:02:48.486Z,101916.25
2022-10-19T03:05:18.662Z,101903.88
2022-10-19T03:07:48.570Z,101902.72
2022-10-19T03:10:18.537Z,101914.88
2022-10-19T03:12:51.236Z,101916.59
2022-10-19T03:15:24.775Z,101914.75
2022-10-19T03:17:59.005Z,101911.25
2022-10-19T03:20:29.026Z,101913.59
2022-10-19T03:23:01.486Z,101919.94
2022-10-19T03:25:31.244Z,101920.25
2022-10-19T03:28:01.456Z,101919.56
2022-10-19T03:30:31.191Z,101916.72
2022-10-19T03:33:03.615Z,101922.59
2022-10-19T03:35:33.559Z,101921.59
2022-10-19T03:38:03.426Z,101921.41
2022-10-19T03:40:33.336Z,101918.91
2022-10-19T03:43:03.173Z,101925.09
2022-10-19T03:45:33.020Z,101930.09
2022-10-19T03:48:05.472Z,101940.31
2022-10-19T03:50:35.292Z,101944.00
2022-10-19T03:53:05.039Z,101935.97
2022-10-19T03:55:34.919Z,101931.28
2022-10-19T03:58:04.824Z,101924.59
2022-10-19T04:00:34.636Z,101934.78
2022-10-19T04:03:07.115Z,101929.09
2022-10-19T04:05:36.995Z,101935.47
2022-10-19T04:08:07.243Z,101936.44
2022-10-19T04:10:37.155Z,101938.13
2022-10-19T04:13:06.968Z,101944.16
2022-10-19T04:15:36.783Z,101947.84
2022-10-19T04:18:09.337Z,101953.31
2022-10-19T04:20:42.800Z,101953.19
2022-10-19T04:23:12.642Z,101958.53
2022-10-19T04:25:42.446Z,101954.84
2022-10-19T04:28:12.461Z,101956.38
2022-10-19T04:30:42.313Z,101961.53
2022-10-19T04:33:14.826Z,101960.03
2022-10-19T04:35:44.639Z,101962.72
2022-10-19T04:38:14.411Z,101964.00
2022-10-19T04:40:44.255Z,101960.00
2022-10-19T04:43:14.346Z,101962.00
2022-10-19T04:45:44.120Z,101968.19
2022-10-19T04:48:16.558Z,101965.34
2022-10-19T04:50:46.452Z,101974.72
2022-10-19T04:55:54.623Z,101980.41
2022-10-19T04:58:24.457Z,101975.88
2022-10-19T05:00:54.324Z,101982.06
2022-10-19T05:03:26.726Z,101984.91
2022-10-19T05:05:56.474Z,101985.91
2022-10-19T05:08:26.249Z,101995.28
2022-10-19T05:10:56.078Z,101984.72
2022-10-19T05:13:25.856Z,101992.59
2022-10-19T05:15:59.831Z,101996.09
2022-10-19T05:18:32.405Z,101991.44
2022-10-19T05:21:06.545Z,101999.28
2022-10-19T05:23:37.283Z,101998.63
2022-10-19T05:26:09.254Z,101990.75
2022-10-19T05:28:39.681Z,101994.59
2022-10-19T05:31:12.660Z,102004.63
2022-10-19T05:33:45.784Z,102002.94
2022-10-19T05:36:18.038Z,101997.09
2022-10-19T05:38:49.506Z,102004.72
2022-10-19T05:41:19.929Z,102005.22
2022-10-19T05:43:55.583Z,102007.72
2022-10-19T05:46:26.352Z,102012.41
2022-10-19T05:49:00.002Z,102016.91
2022-10-19T05:51:30.968Z,102012.09
2022-10-19T05:54:00.967Z,102016.28
2022-10-19T05:56:32.554Z,102008.91
2022-10-19T05:59:04.529Z,102007.13
2022-10-19T06:01:35.227Z,102014.28
2022-10-19T06:04:08.025Z,102011.75
2022-10-19T06:06:38.073Z,102009.91
2022-10-19T06:09:08.105Z,102017.94
2022-10-19T06:11:40.105Z,102016.28
2022-10-19T06:14:13.944Z,102021.47
2022-10-19T06:16:46.234Z,102020.16
2022-10-19T06:19:18.895Z,102022.69
2022-10-19T06:21:48.778Z,102026.84
2022-10-19T06:24:18.558Z,102029.22
2022-10-19T06:26:48.399Z,102028.88
2022-10-19T06:29:36.787Z,102025.88
2022-10-19T06:32:06.927Z,102021.19
2022-10-19T06:34:39.254Z,102027.72
2022-10-19T06:37:09.242Z,102023.22
2022-10-19T06:39:39.110Z,102020.53
2022-10-19T06:42:09.654Z,102024.88
2022-10-19T06:44:39.408Z,102025.56
2022-10-19T06:47:09.234Z,102024.72
2022-10-19T06:49:41.690Z,102019.69
2022-10-19T06:52:11.685Z,102032.91
2022-10-19T06:54:41.460Z,102032.63
2022-10-19T06:57:11.379Z,102035.97
2022-10-19T06:59:41.311Z,102037.63
2022-10-19T07:02:13.112Z,102033.28
2022-10-19T07:04:45.465Z,102044.66
2022-10-19T07:07:15.493Z,102053.03
2022-10-19T07:09:45.286Z,102063.25
2022-10-19T07:12:15.177Z,102047.72
2022-10-19T07:14:44.994Z,102056.59
2022-10-19T07:17:15.243Z,102060.28
2022-10-19T07:19:47.638Z,102060.28
2022-10-19T07:22:22.172Z,102068.66
2022-10-19T07:24:55.575Z,102067.47
2022-10-19T07:27:25.426Z,102077.53
2022-10-19T07:29:55.225Z,102071.50
2022-10-19T07:32:25.012Z,102067.50
2022-10-19T07:34:57.484Z,102074.19
2022-10-19T07:37:27.487Z,102075.53
2022-10-19T07:39:57.451Z,102080.28
2022-10-19T07:42:27.568Z,102079.94
2022-10-19T07:44:57.356Z,102079.94
2022-10-19T07:47:27.302Z,102081.78
2022-10-19T07:49:59.869Z,102085.47
2022-10-19T07:52:31.821Z,102095.50
2022-10-19T07:55:04.212Z,102080.94
2022-10-19T07:57:34.240Z,102096.19
2022-10-19T08:00:04.284Z,102091.66
2022-10-19T08:02:54.883Z,102094.34
2022-10-19T08:05:34.840Z,102084.63
2022-10-19T08:08:05.189Z,102084.63
2022-10-19T08:10:35.075Z,102091.34
2022-10-19T08:13:04.918Z,102093.34
2022-10-19T08:15:34.734Z,102110.59
2022-10-19T08:18:04.756Z,102101.38
2022-10-19T08:20:37.178Z,102106.72
2022-10-19T08:26:14.554Z,102107.06
2022-10-19T08:28:44.523Z,102121.44
2022-10-19T08:31:16.155Z,102123.06
2022-10-19T08:33:46.609Z,102126.59
2022-10-19T08:36:19.726Z,102123.22
2022-10-19T08:38:49.972Z,102121.41
2022-10-19T08:41:35.552Z,102113.38
2022-10-19T08:44:40.211Z,102113.72
2022-10-19T08:47:23.622Z,102113.75
2022-10-19T08:49:53.940Z,102114.94
2022-10-19T08:52:34.403Z,102122.47
2022-10-19T08:55:06.179Z,102122.53
2022-10-19T08:57:45.024Z,102118.84
2022-10-19T09:00:22.325Z,102125.38
2022-10-19T09:03:07.116Z,102126.84
2022-10-19T09:05:46.181Z,102114.69
2022-10-19T09:08:20.613Z,102121.50
2022-10-19T09:10:53.365Z,102118.41
2022-10-19T09:13:41.713Z,102130.41
2022-10-19T09:16:28.100Z,102136.78
2022-10-19T09:18:57.879Z,102138.00
2022-10-19T09:21:43.292Z,102130.28
2022-10-19T09:24:31.545Z,102133.16
2022-10-19T09:27:03.896Z,102142.56
2022-10-19T09:29:41.719Z,102143.47
2022-10-19T09:32:18.214Z,102135.41
2022-10-19T09:34:52.737Z,102132.31
2022-10-19T09:37:26.522Z,102135.75
2022-10-19T09:39:59.332Z,102138.19
2022-10-19T09:42:33.734Z,102137.31
2022-10-19T09:45:14.200Z,102137.50
2022-10-19T09:47:48.686Z,102140.03
2022-10-19T09:50:21.898Z,102140.44
2022-10-19T09:52:52.998Z,102143.91
2022-10-19T09:55:32.418Z,102143.22
2022-10-19T09:58:05.318Z,102154.59
2022-10-19T10:00:38.419Z,102154.03
2022-10-19T10:03:10.386Z,102146.91
2022-10-19T10:05:42.638Z,102151.53
2022-10-19T10:08:17.727Z,102159.03
2022-10-19T10:11:05.431Z,102156.66
2022-10-19T10:13:40.249Z,102153.22
2022-10-19T10:16:12.303Z,102148.72
2022-10-19T10:18:54.135Z,102150.31
2022-10-19T10:21:26.247Z,102144.75
2022-10-19T10:24:05.905Z,102144.41
2022-10-19T10:26:41.871Z,102153.88
2022-10-19T10:29:23.773Z,102145.34
2022-10-19T10:31:56.584Z,102151.25
2022-10-19T10:34:50.071Z,102148.59
2022-10-19T10:37:24.763Z,102150.38
2022-10-19T10:39:59.084Z,102150.78
2022-10-19T10:42:39.382Z,102148.94
2022-10-19T10:45:20.489Z,102150.25
2022-10-19T10:47:51.309Z,102152.00
2022-10-19T10:50:24.912Z,102143.59
2022-10-19T10:53:00.996Z,102141.06
2022-10-19T10:55:31.910Z,102144.00
2022-10-19T10:58:17.629Z,102140.09
2022-10-19T11:00:48.399Z,102139.34
2022-10-19T11:03:22.940Z,102141.63
2022-10-19T11:05:58.933Z,102146.69
2022-10-19T11:08:34.973Z,102149.84
2022-10-19T11:11:14.255Z,102153.53
2022-10-19T11:13:54.261Z,102149.41
2022-10-19T11:16:29.780Z,102139.25
2022-10-19T11:19:04.981Z,102146.50
2022-10-19T11:21:40.504Z,102155.00
2022-10-19T11:24:18.446Z,102150.91
2022-10-19T11:27:02.334Z,102155.13
2022-10-19T11:29:59.523Z,102145.22
2022-10-19T11:32:38.218Z,102138.28
2022-10-19T11:35:23.822Z,102141.56
2022-10-19T11:38:21.364Z,102147.84
2022-10-19T11:41:17.404Z,102143.19
2022-10-19T11:43:59.196Z,102147.44
2022-10-19T11:46:38.025Z,102134.94
2022-10-19T11:49:22.204Z,102145.69
2022-10-19T11:51:57.639Z,102144.59
2022-10-19T11:54:41.139Z,102145.25
2022-10-19T11:57:18.944Z,102128.94
2022-10-19T12:00:14.985Z,102133.63
2022-10-19T12:03:18.091Z,102134.66
2022-10-19T12:06:01.295Z,102126.56
2022-10-19T12:08:49.112Z,102122.59
2022-10-19T12:11:31.011Z,102116.03
2022-10-19T12:14:07.143Z,102125.47
2022-10-19T12:16:40.943Z,102125.50
2022-10-19T12:19:21.389Z,102125.06
2022-10-19T12:21:53.184Z,102117.06
2022-10-19T12:24:26.502Z,102124.44
2022-10-19T12:26:57.495Z,102119.75
2022-10-19T12:29:30.913Z,102122.94
2022-10-19T12:32:02.573Z,102121.22
2022-10-19T12:34:45.327Z,102126.75
2022-10-19T12:37:22.698Z,102120.19
2022-10-19T12:39:56.430Z,102118.91
2022-10-19T12:42:31.586Z,102112.00
2022-10-19T12:45:17.002Z,102112.00
2022-10-19T12:48:19.557Z,102109.19
2022-10-19T12:51:09.012Z,102111.03
2022-10-19T12:53:41.572Z,102103.94
2022-10-19T12:56:16.275Z,102107.81
2022-10-19T12:58:54.466Z,102097.75
2022-10-19T13:01:29.873Z,102110.13
2022-10-19T13:04:14.682Z,102101.25
2022-10-19T13:06:49.418Z,102104.34
2022-10-19T13:09:27.491Z,102098.81
2022-10-19T13:12:27.395Z,102097.78
2022-10-19T13:14:58.467Z,102099.00
2022-10-19T13:17:44.173Z,102102.22
2022-10-19T13:20:50.743Z,102099.41
2022-10-19T13:23:45.399Z,102096.75
2022-10-19T13:26:36.070Z,102093.31
2022-10-19T13:29:05.929Z,102094.69
2022-10-19T13:31:37.540Z,102084.53
2022-10-19T13:34:13.277Z,102081.56
2022-10-19T13:37:02.348Z,102078.69
2022-10-19T13:39:42.864Z,102085.34
2022-10-19T13:42:26.537Z,102083.75
2022-10-19T13:44:56.778Z,102079.28
2022-10-19T13:50:38.611Z,102082.63
2022-10-19T13:53:33.434Z,102075.94
2022-10-19T13:56:28.820Z,102074.00
2022-10-19T13:59:27.961Z,102070.34
2022-10-19T14:02:34.358Z,102082.00
2022-10-19T14:05:21.116Z,102074.94
2022-10-19T14:08:06.154Z,102074.31
2022-10-19T14:10:56.278Z,102078.47
2022-10-19T14:13:29.554Z,102078.59
2022-10-19T14:16:03.084Z,102067.81
2022-10-19T14:18:34.186Z,102073.50
2022-10-19T14:21:06.451Z,102066.94
2022-10-19T14:23:38.240Z,102062.56
2022-10-19T14:26:14.272Z,102065.78
2022-10-19T14:28:46.906Z,102064.31
2022-10-19T14:31:24.533Z,102062.63
2022-10-19T14:33:56.593Z,102059.47
2022-10-19T14:36:30.805Z,102064.47
2022-10-19T14:39:00.734Z,102063.34
2022-10-19T14:44:39.759Z,102062.75
2022-10-19T14:47:24.082Z,102064.69
2022-10-19T14:49:54.180Z,102062.72
2022-10-19T14:52:31.072Z,102066.28
2022-10-19T14:55:05.275Z,102063.47
2022-10-19T14:57:38.556Z,102067.88
2022-10-19T15:00:21.421Z,102069.59
2022-10-19T15:02:58.825Z,102061.06
2022-10-19T15:05:34.201Z,102055.56
2022-10-19T15:08:11.360Z,102053.41
2022-10-19T15:10:45.831Z,102059.31
2022-10-19T15:13:26.772Z,102049.59
2022-10-19T15:15:59.155Z,102050.78
2022-10-19T15:18:48.288Z,102057.16
2022-10-19T15:21:22.897Z,102055.31
2022-10-19T15:23:54.596Z,102055.66
2022-10-19T15:26:32.517Z,102057.00
2022-10-19T15:29:13.643Z,102046.63
2022-10-19T15:31:46.128Z,102044.13
2022-10-19T15:34:25.694Z,102048.16
2022-10-19T15:37:00.803Z,102049.53
2022-10-19T15:39:42.187Z,102049.22
2022-10-19T15:42:44.356Z,102054.22
2022-10-19T15:45:36.213Z,102055.09
2022-10-19T15:48:30.227Z,102054.78
2022-10-19T15:51:00.506Z,102059.81
2022-10-19T15:53:30.315Z,102064.88
2022-10-19T15:58:58.654Z,102059.34
2022-10-19T16:01:33.898Z,102058.16
2022-10-19T16:04:09.019Z,102070.06
2022-10-19T16:06:44.056Z,102074.75
2022-10-19T16:09:20.478Z,102069.41
2022-10-19T16:11:56.458Z,102074.94
2022-10-19T16:14:31.937Z,102073.78
2022-10-19T16:17:05.608Z,102079.47
2022-10-19T16:19:41.802Z,102077.66
2022-10-19T16:22:11.814Z,102079.63
2022-10-19T16:24:42.415Z,102082.63
2022-10-19T16:27:15.147Z,102077.59
2022-10-19T16:29:45.933Z,102081.44
2022-10-19T16:32:15.942Z,102087.31
2022-10-19T16:34:49.325Z,102083.13
2022-10-19T16:37:22.290Z,102081.28
2022-10-19T16:39:52.124Z,102078.09
2022-10-19T16:42:24.584Z,102087.63
2022-10-19T16:44:55.561Z,102088.81
2022-10-19T16:47:25.655Z,102088.31
2022-10-19T16:50:03.782Z,102095.66
2022-10-19T16:52:34.333Z,102091.50
2022-10-19T16:55:05.396Z,102090.16
2022-10-19T16:57:35.352Z,102087.94
2022-10-19T17:00:05.601Z,102109.69
2022-10-19T17:02:35.879Z,102112.03
2022-10-19T17:05:08.846Z,102105.31
2022-10-19T17:07:38.870Z,102105.66
2022-10-19T17:10:09.476Z,102104.31
2022-10-19T17:12:42.039Z,102109.13
2022-10-19T17:18:03.209Z,102120.19
2022-10-19T17:20:36.258Z,102114.63
2022-10-19T17:23:06.720Z,102111.25
2022-10-19T17:25:36.801Z,102121.28
2022-10-19T17:28:06.943Z,102124.28
2022-10-19T17:30:36.755Z,102131.63
2022-10-19T17:33:09.785Z,102129.28
2022-10-19T17:35:44.808Z,102122.59
2022-10-19T17:38:14.964Z,102124.41
2022-10-19T17:40:47.287Z,102126.38
2022-10-19T17:43:17.189Z,102124.88
2022-10-19T17:45:51.241Z,102124.50
2022-10-19T17:48:23.771Z,102122.00
2022-10-19T17:51:02.700Z,102131.34
2022-10-19T17:53:33.895Z,102121.66
2022-10-19T17:56:05.638Z,102132.81
2022-10-19T17:58:39.740Z,102137.00
2022-10-19T18:01:10.777Z,102122.41
2022-10-19T18:03:42.392Z,102129.75
2022-10-19T18:06:16.817Z,102126.72
2022-10-19T18:08:49.723Z,102135.06
2022-10-19T18:11:27.984Z,102132.03
2022-10-19T18:14:00.735Z,102136.03
2022-10-19T18:16:32.343Z,102126.63
2022-10-19T18:19:05.387Z,102128.47
2022-10-19T18:21:41.385Z,102132.63
2022-10-19T18:24:15.372Z,102135.59
2022-10-19T18:26:46.714Z,102137.72
2022-10-19T18:29:20.089Z,102138.72
2022-10-19T18:31:52.253Z,102136.03
2022-10-19T18:34:23.881Z,102137.19
2022-10-19T18:36:57.206Z,102135.53
2022-10-19T18:39:27.316Z,102138.19
2022-10-19T18:41:57.417Z,102142.03
2022-10-19T18:44:29.566Z,102152.03
2022-10-19T18:47:02.819Z,102152.34
2022-10-19T18:49:32.648Z,102138.59
2022-10-19T18:52:05.053Z,102146.09
2022-10-19T18:54:34.901Z,102148.94
2022-10-19T18:57:04.841Z,102142.75
2022-10-19T18:59:34.788Z,102144.72
2022-10-19T19:02:13.660Z,102138.69
2022-10-19T19:04:53.152Z,102145.41
2022-10-19T19:07:25.912Z,102143.88
2022-10-19T19:09:55.709Z,102134.88
2022-10-19T19:12:25.670Z,102143.06
2022-10-19T19:14:55.468Z,102138.84
2022-10-19T19:17:25.283Z,102139.16
2022-10-19T19:19:55.222Z,102143.97
2022-10-19T19:22:30.401Z,102150.44
2022-10-19T19:25:00.287Z,102142.59
2022-10-19T19:27:31.928Z,102138.50
2022-10-19T19:30:04.807Z,102130.81
2022-10-19T19:32:34.998Z,102132.78
2022-10-19T19:35:05.380Z,102133.78
2022-10-19T19:37:38.706Z,102136.59
2022-10-19T19:40:11.902Z,102137.91
2022-10-19T19:42:42.257Z,102139.91
2022-10-19T19:45:13.572Z,102139.34
2022-10-19T19:47:44.005Z,102145.53
2022-10-19T19:50:13.813Z,102133.19
2022-10-19T19:52:48.341Z,102138.81
2022-10-19T19:55:18.261Z,102138.00
2022-10-19T19:57:50.224Z,102136.47
2022-10-19T20:00:20.179Z,102129.44
2022-10-19T20:02:54.581Z,102134.38
2022-10-19T20:05:25.061Z,102135.50
2022-10-19T20:07:57.691Z,102137.81
2022-10-19T20:10:27.847Z,102136.28
2022-10-19T20:12:57.741Z,102137.41
2022-10-19T20:15:27.564Z,102131.53
2022-10-19T20:17:57.480Z,102138.88
2022-10-19T20:20:27.320Z,102140.16
2022-10-19T20:22:59.837Z,102138.94
2022-10-19T20:25:29.747Z,102145.25
2022-10-19T20:27:59.537Z,102144.56
2022-10-19T20:30:29.300Z,102143.03
2022-10-19T20:32:59.685Z,102140.53
2022-10-19T20:35:29.522Z,102140.63
2022-10-19T20:38:03.072Z,102151.47
2022-10-19T20:40:33.055Z,102145.28
2022-10-19T20:43:05.970Z,102152.59
2022-10-19T20:45:35.807Z,102158.09
2022-10-19T20:48:05.616Z,102151.38
2022-10-19T20:50:35.735Z,102148.84
2022-10-19T20:53:09.437Z,102152.81
2022-10-19T20:55:39.216Z,102153.63
2022-10-19T20:58:09.245Z,102151.28
2022-10-19T21:00:41.435Z,102159.41
2022-10-19T21:03:11.168Z,102157.75
2022-10-19T21:05:41.184Z,102160.84
2022-10-19T21:08:15.921Z,102160.31
2022-10-19T21:10:45.772Z,102166.47
2022-10-19T21:13:18.682Z,102162.44
2022-10-19T21:15:54.632Z,102164.41
2022-10-19T21:18:24.356Z,102164.41
2022-10-19T21:20:57.305Z,102172.41
2022-10-19T21:23:30.238Z,102161.31
2022-10-19T21:26:00.144Z,102159.63
2022-10-19T21:28:29.949Z,102166.06
2022-10-19T21:30:59.992Z,102157.50
2022-10-19T21:33:29.811Z,102158.66
2022-10-19T21:35:59.765Z,102158.94
2022-10-19T21:38:32.355Z,102161.06
2022-10-19T21:41:03.447Z,102156.72
2022-10-19T21:43:33.973Z,102162.19
2022-10-19T21:46:05.069Z,102157.00
2022-10-19T21:48:36.187Z,102147.47
2022-10-19T21:51:19.853Z,102145.94
2022-10-19T21:53:52.934Z,102141.72
2022-10-19T21:56:22.776Z,102143.84
2022-10-19T21:58:54.005Z,102147.06
2022-10-19T22:01:25.927Z,102143.84
2022-10-19T22:03:58.871Z,102138.94
2022-10-19T22:06:30.440Z,102146.41
2022-10-19T22:09:07.383Z,102136.88
2022-10-19T22:11:37.380Z,102134.91
2022-10-19T22:14:08.238Z,102133.22
2022-10-19T22:16:38.064Z,102135.19
2022-10-19T22:19:08.598Z,102128.47
2022-10-19T22:24:15.649Z,102118.09
2022-10-19T22:26:47.843Z,102121.88
2022-10-19T22:29:17.662Z,102125.38
2022-10-19T22:31:47.919Z,102108.84
2022-10-19T22:34:21.570Z,102112.66
2022-10-19T22:36:51.415Z,102110.28
2022-10-19T22:39:26.997Z,102111.66
2022-10-19T22:41:58.654Z,102101.97
2022-10-19T22:44:28.434Z,102101.44
2022-10-19T22:46:58.274Z,102105.34
2022-10-19T22:49:29.919Z,102109.00
2022-10-19T22:52:00.458Z,102120.78
2022-10-19T22:54:32.920Z,102114.75
2022-10-19T22:57:02.989Z,102118.25
2022-10-19T22:59:33.211Z,102117.56
2022-10-19T23:02:03.678Z,102108.88
2022-10-19T23:04:33.791Z,102110.56
2022-10-19T23:07:03.636Z,102108.88
2022-10-19T23:09:36.024Z,102108.31
2022-10-19T23:12:05.986Z,102107.34
2022-10-19T23:14:35.873Z,102101.44
2022-10-19T23:17:05.633Z,102095.44
2022-10-19T23:19:38.466Z,102094.03
2022-10-19T23:22:08.505Z,102084.75
2022-10-19T23:24:42.962Z,102080.56
2022-10-19T23:27:12.777Z,102086.13
2022-10-19T23:29:42.621Z,102083.06
2022-10-19T23:32:12.632Z,102088.78
2022-10-19T23:34:44.557Z,102086.56
2022-10-19T23:37:17.519Z,102087.53
2022-10-19T23:39:49.825Z,102095.66
2022-10-19T23:42:19.841Z,102094.81
2022-10-19T23:44:49.683Z,102092.28
2022-10-19T23:47:19.527Z,102100.41
2022-10-19T23:49:49.377Z,102098.72
2022-10-19T23:52:19.195Z,102106.72
2022-10-19T23:54:54.202Z,102096.34
2022-10-19T23:57:24.071Z,102098.03
2022-10-19T23:59:53.851Z,102096.22
